Weather observations for the past three days for
Aurora, Aurora Municipal Airport
Metric (Imperial)
Date Time (cdt) Wind (kph) Vis. (km) Weather Sky Cond. Temperature (ºC) Relative Humidity Wind Chill (°C) Heat Index (°C) Pressure Precipitation (cm)
Air Dwpt 6 hour altimeter (cm) sea level (mb) 1 hr 3 hr 6 hr
Max. Min.
02 19:35 SW 15 16.09 Fair CLR 20.8 -3.1 20% 76.1 0.0
02 19:15 SW 20 16.09 Fair CLR 21.1 -3.3 19% 76.12 0.0
02 18:55 W 19 16.09 Fair CLR 21.5 -3.9 21.6 17.3 18% 76.15 0.0
02 18:35 SW 17 G 28 16.09 Fair CLR 21.2 -4.9 17% 76.15 0.0
02 18:15 W 22 G 30 16.09 Fair CLR 21.4 -4.8 17% 76.17 0.0
02 17:55 SW 24 16.09 Fair CLR 21.5 -4.8 17% 76.2 0.0
02 17:35 W 13 G 26 16.09 Fair CLR 21.1 -5.4 16% 76.23 0.0
02 17:15 SW 15 G 30 16.09 Fair CLR 21 -5.8 16% 76.23 0.0
02 16:35 SW 24 G 33 16.09 Fair CLR 21.2 -5.8 16% 76.28 0.0
02 16:15 SW 20 G 30 16.09 Fair CLR 20.4 -5.7 17% 76.3 0.0
02 15:55 W 19 16.09 Fair CLR 20.3 -6.2 16% 76.33 0.0
02 15:35 W 11 G 31 16.09 Fair CLR 20.4 -5.8 17% 76.35 0.0
02 15:15 SW 20 G 31 16.09 Fair CLR 20 -5.5 17% 76.38 0.0
02 14:35 SW 9 16.09 Fair CLR 19.1 -4.5 20% 76.4 0.0
02 14:15 W 11 16.09 Fair CLR 19 -4.5 20% 76.43 0.0
02 13:55 W 15 16.09 Fair CLR 18.6 -5.2 19% 76.45 0.0
02 13:35 W 19 G 31 16.09 Fair CLR 18.4 -4.5 21% 76.48 0.0
02 13:15 W 26 G 33 16.09 Fair CLR 17.7 -5.1 21% 76.5 0.0
02 12:55 SW 19 G 26 16.09 Fair CLR 17.2 -4.9 17.4 0.1 22% 76.53 0.0
02 12:35 Calm 16.09 Fair CLR 16.6 -4.2 24% 76.56 0.0
02 12:15 W 17 16.09 Fair CLR 16.8 -3.6 25% 76.58 0.0
02 11:55 W 20 G 30 16.09 Fair CLR 16.8 -3.4 25% 76.61 0.0
02 11:35 W 13 16.09 Fair CLR 15.4 -3.7 27% 76.61 0.0
02 11:15 NW 13 16.09 Fair CLR 15.2 -2.7 29% 76.63 0.0
02 10:55 W 13 16.09 Fair CLR 14.6 -1.7 33% 76.66 0.0
02 10:35 W 11 16.09 Fair CLR 13.9 -1.6 35% 76.66 0.0
02 10:15 W 17 16.09 Fair CLR 13.1 -2.1 35% 76.66 0.0
02 09:55 W 15 16.09 Fair CLR 12.5 -2.1 36% 76.66 0.0
02 09:35 SW 11 16.09 Fair CLR 11.5 -2 39% 76.66 0.0
02 09:15 W 13 16.09 Fair CLR 10.5 -1.2 44% 76.66 0.0
02 08:55 W 9 16.09 Fair CLR 9.3 -0.3 51% 8 76.68 0.0
02 08:35 W 11 16.09 Fair CLR 7.5 -0.3 58% 6 76.68 0.0
02 08:15 W 9 16.09 Fair CLR 5.8 -0.4 65% 4 76.68 0.0
02 07:55 W 11 16.09 Fair CLR 4.9 0 71% 3 76.68 0.0
02 07:35 Calm 16.09 Fair CLR 2.7 -0.8 78% 76.66 0.0
02 07:15 W 6 16.09 Fair CLR 1 -2.1 80% 76.66 0.0
02 06:55 W 7 16.09 Fair CLR 0 -2.9 4.6 -0.2 81% -2 76.66 0.0
02 06:35 W 7 16.09 Fair CLR 0.1 -3.4 78% -2 76.66 0.0
02 06:15 W 6 16.09 Fair CLR 0.8 -2.8 77% 76.66 0.0
02 05:55 W 9 16.09 Fair CLR 0.3 -3.2 78% -2 76.66 0.0
02 05:35 W 9 16.09 Fair CLR 0.3 -3.3 77% -2 76.66 0.0
02 05:15 W 9 16.09 Fair CLR 0.2 -3.3 78% -3 76.66 0.0
02 04:55 W 6 16.09 Fair CLR 0.9 -3.4 73% 76.66 0.0
02 04:35 W 7 16.09 Fair CLR 0.6 -3.5 74% -1 76.66 0.0
02 04:15 W 9 16.09 Fair CLR 0.7 -3.2 75% -2 76.66 0.0
02 03:55 W 9 16.09 Fair CLR 0.5 -3.3 76% -2 76.63 0.0
02 03:35 W 9 16.09 Fair CLR 1 -3.3 73% -2 76.63 0.0
02 03:15 W 9 16.09 Fair CLR 0.5 -3.5 75% -2 76.66 0.0
02 02:55 W 9 16.09 Fair CLR 0.7 -3 77% -2 76.66 0.0
02 02:35 W 6 16.09 Fair CLR 1.1 -2.9 75% 76.66 0.0
02 02:15 W 6 16.09 Fair CLR 1.4 -2.8 74% 76.66 0.0
02 01:55 Calm 16.09 Fair CLR 2.2 -3.2 68% 76.66 0.0
02 01:35 Calm 16.09 Fair CLR 2.3 -2.6 70% 76.66 0.0
02 01:15 N 6 16.09 Fair CLR 3.6 -3.1 62% 76.63 0.0
02 00:55 N 7 16.09 Fair CLR 4.5 -2.3 14.5 4 62% 3 76.63 0.0
02 00:35 N 7 16.09 Fair CLR 4.9 -2.8 58% 3 76.63 0.0
02 00:15 NE 6 16.09 Fair CLR 4.8 -2.2 61% 76.63 0.0
01 23:55 Calm 16.09 Fair CLR 4.6 -2.6 60% 76.61 0.0
01 23:35 Calm 16.09 Fair CLR 5.4 -2.4 58% 76.61 0.0
01 23:15 Calm 16.09 Fair CLR 5.5 -2.3 58% 76.61 0.0
01 22:55 NE 6 16.09 Fair CLR 5.7 -2.2 57% 76.58 0.0
01 22:35 NE 9 16.09 Fair CLR 5.5 -1.9 59% 4 76.58 0.0
01 22:15 NE 9 16.09 Fair CLR 6.4 -2.1 55% 5 76.56 0.0
01 21:55 NE 11 16.09 Fair CLR 6.4 -2 55% 4 76.53 0.0
01 21:35 NE 11 16.09 Fair CLR 7.5 -2.5 49% 6 76.5 0.0
01 21:15 NE 11 16.09 Fair CLR 8.1 -2.5 48% 6 76.48 0.0
01 20:35 NE 15 16.09 Fair CLR 10.6 -3.7 37% 76.45 0.0
01 20:15 N 15 16.09 Fair CLR 12.1 -4.5 31% 76.43 0.0
01 19:55 N 13 16.09 Fair CLR 13.1 -4.1 30% 76.43 0.0
01 19:35 N 24 16.09 Fair CLR 14 -4.4 28% 76.4 0.0
01 19:15 N 20 16.09 Fair CLR 14.2 -4.2 28% 76.4 0.0
01 18:55 N 20 G 35 16.09 Fair CLR 14.6 -4.2 16.1 13.4 27% 76.4 0.0
01 18:35 N 22 G 35 16.09 Fair CLR 15.1 -3.8 27% 76.4 0.0
01 18:15 N 24 16.09 Fair CLR 15.1 -3.7 27% 76.38 0.0
01 17:55 N 19 G 31 16.09 Partly Cloudy SCT075 15.3 -3.1 28% 76.38 0.0
01 17:35 N 22 G 37 16.09 Partly Cloudy SCT075 16 -2.4 28% 76.4 0.0
01 17:15 N 28 G 33 16.09 Partly Cloudy SCT075 15.5 -2.5 29% 76.4 0.0
01 16:55 N 15 G 33 16.09 Partly Cloudy SCT075 15.8 -1.8 30% 76.4 0.0
01 16:35 N 19 G 37 16.09 Partly Cloudy SCT080 16 -1.8 30% 76.4 0.0
01 16:15 N 22 G 41 16.09 Overcast OVC070 15.8 -1.4 31% 76.43 0.0
01 15:55 N 7 G 31 16.09 Mostly Cloudy BKN070 BKN095 14.5 -1.8 33% 76.43 0.0
01 15:35 N 15 16.09 Partly Cloudy SCT095 14.5 -1.8 33% 76.45 0.0
01 15:15 N 20 G 33 16.09 Partly Cloudy SCT095 15.2 -2 31% 76.45 0.0
01 14:55 N 22 G 31 16.09 Fair CLR 14.8 -0.7 35% 76.48 0.0
01 14:35 N 11 G 28 16.09 Fair CLR 14.4 -0.9 35% 76.48 0.0
01 14:15 N 19 G 31 16.09 Partly Cloudy SCT080 14.3 -0.6 36% 76.48 0.0
01 13:55 N 19 G 31 16.09 Partly Cloudy SCT080 14.3 -0.4 37% 76.48 0.0
01 13:35 NE 15 G 30 16.09 Fair CLR 14 -0.1 38% 76.48 0.0
01 13:15 N 20 G 30 16.09 Fair CLR 13.9 -0.2 38% 76.48 0.0
01 12:55 N 22 G 31 16.09 Fair CLR 13.2 -0.2 13.5 2 40% 76.5 0.0
01 12:35 N 19 G 30 16.09 Fair CLR 13.1 0 41% 76.5 0.0
01 12:15 N 17 G 39 16.09 Fair CLR 12.7 -0.9 39% 76.53 0.0
01 11:55 N 22 G 33 16.09 Fair CLR 12.6 -0.4 41% 76.53 0.0
01 11:35 NE 22 G 31 16.09 Fair CLR 12.1 0 44% 76.5 0.0
01 11:15 N 28 16.09 Fair CLR 11.5 0.1 46% 76.53 0.0
01 10:55 N 19 G 30 16.09 Fair CLR 11.2 1.5 52% 76.5 0.0
01 10:35 N 26 G 37 16.09 Fair CLR 10.6 0.5 50% 76.5 0.0
01 10:15 N 26 G 33 16.09 Fair CLR 10.2 0.4 51% 76.5 0.0
01 09:55 N 26 G 33 16.09 Fair CLR 9.8 1.7 57% 7 76.5 0.0
01 09:35 N 26 16.09 Fair CLR 9 1.3 59% 6 76.5 0.0
01 09:15 N 19 16.09 Fair CLR 8.1 1 61% 5 76.48 0.0
01 08:55 N 17 16.09 Fair CLR 7.4 0.8 63% 5 76.5 0.0
01 08:35 N 19 16.09 Fair CLR 6.8 0.8 66% 4 76.5 0.0
01 08:15 N 13 16.09 Fair CLR 5.7 0.6 70% 3 76.48 0.0
01 07:55 NW 13 16.09 Fair CLR 4.7 0.5 75% 2 76.48 0.0
01 07:35 NW 11 16.09 Fair CLR 3.6 0 78% 1 76.48 0.0
01 07:15 NW 13 16.09 Fair CLR 3 0 81% 0 76.45 0.0
01 06:55 W 13 16.09 Fair CLR 2 -0.4 3.8 1.5 84% -1 76.45 0.0
01 06:35 NW 13 16.09 Fair CLR 1.7 -0.5 86% -2 76.45 0.0
01 06:15 NW 17 16.09 Fair CLR 2.1 -0.3 84% -2 76.45 0.0
01 05:55 NW 20 16.09 Fair CLR 2.3 0 85% -2 76.45 0.0
01 05:35 NW 15 16.09 Fair CLR 1.6 -0.2 88% -2 76.43 0.0
01 05:15 W 15 16.09 Fair CLR 2 -0.1 86% -2 76.43 0.0
01 04:55 W 15 16.09 Partly Cloudy SCT095 1.5 -0.6 86% -2 76.4 0.0
01 04:35 W 13 16.09 Fair CLR 1.7 -0.6 85% -2 76.43 0.0
01 04:15 W 15 16.09 Fair CLR 2.5 -0.1 83% -1 76.43 0.0
01 03:55 W 13 16.09 Fair CLR 2.8 0 82% -0 76.43 0.0
01 03:35 SW 13 16.09 Fair CLR 3.7 0 77% 1 76.43 0.0
01 03:15 SW 15 16.09 Fair CLR 3.6 0 78% 0 76.4 0.0
01 02:55 SW 15 16.09 Fair CLR 3.2 0 80% -0 76.43 0.0
01 02:35 SW 13 16.09 Fair CLR 3.5 0 78% 1 76.45 0.0
01 02:15 SW 15 16.09 Fair CLR 3.8 0.1 77% 1 76.45 0.0
01 01:55 SW 15 16.09 Fair CLR 3.7 0.4 79% 1 76.48 0.0
01 01:35 SW 15 16.09 Fair CLR 3.4 0.1 79% 0 76.48 0.0
01 01:15 SW 13 16.09 Fair CLR 3.3 0 79% 0 76.48 0.0
01 00:55 SW 11 16.09 Fair CLR 2.6 -1 12.3 2.6 77% -0 76.48 0.0
01 00:35 SW 9 16.09 Fair CLR 4.3 -0.6 71% 2 76.48 0.0
01 00:15 S 9 16.09 Fair CLR 4.1 -0.6 72% 2 76.48 0.0
30 23:55 S 6 16.09 Fair CLR 5.7 -0.4 65% 76.48 0.0
30 23:35 Calm 16.09 Fair CLR 5.6 -0.2 67% 76.5 0.0
30 23:15 SW 6 16.09 Fair CLR 5.9 -0.7 63% 76.5 0.0
30 22:55 SW 6 16.09 Fair CLR 5.6 -0.6 65% 76.5 0.0
30 22:35 Calm 16.09 Fair CLR 5.9 -0.9 62% 76.53 0.0
30 22:15 Calm 16.09 Fair CLR 5.3 -0.5 67% 76.53 0.0
30 21:55 NW 7 16.09 Fair CLR 6.9 -0.5 60% 6 76.53 0.0
30 21:35 NW 7 16.09 Fair CLR 6.9 0.1 62% 6 76.5 0.0
30 20:55 N 9 16.09 Fair CLR 8.4 0.4 57% 7 76.48 0.0
30 20:35 N 15 16.09 Fair CLR 9 0.5 56% 7 76.45 0.0
30 20:15 N 9 16.09 Fair CLR 10 0.8 53% 9 76.45 0.0
30 19:55 N 11 16.09 Fair CLR 11.1 0.2 47% 76.45 0.0
30 19:35 N 15 16.09 Partly Cloudy SCT075 SCT090 12 0 44% 76.45 0.0
30 19:15 N 22 16.09 Partly Cloudy SCT075 SCT090 12.2 0.2 44% 76.45 0.0
30 18:55 N 17 16.09 Mostly Cloudy SCT080 BKN090 12.4 1 14.9 11.8 46% 76.45 0.0
30 18:35 N 24 16.09 Mostly Cloudy SCT080 BKN090 12.2 0.7 46% 76.45 0.0
30 18:15 N 22 16.09 Overcast SCT060 OVC090 12.6 1.5 47% 76.43 0.0
30 17:55 N 24 16.09 Mostly Cloudy SCT060 BKN090 12.6 1.8 48% 76.43 0.0
30 17:35 N 22 G 31 16.09 Mostly Cloudy BKN060 SCT070 BKN080 12.8 2.1 48% 76.43 0.0
30 17:15 N 24 16.09 Mostly Cloudy BKN060 BKN080 12.8 1.9 48% 76.43 0.0
30 16:55 N 17 16.09 Overcast SCT050 BKN070 OVC080 13.7 2.5 47% 76.43 0.0
30 16:35 N 19 G 31 16.09 Mostly Cloudy SCT048 SCT055 BKN075 13.4 2.3 47% 76.43 0.0
30 16:15 N 13 16.09 Mostly Cloudy BKN050 BKN065 BKN075 13.5 2.5 48% 76.43 0.0
30 15:55 N 26 16.09 Overcast SCT044 BKN050 OVC075 13 2.9 51% 76.45 0.0
30 15:35 N 13 16.09 Overcast SCT044 SCT050 OVC070 13.2 3.1 51% 76.45 0.0
30 15:15 N 20 G 30 16.09 Mostly Cloudy SCT055 BKN070 BKN090 13.7 2.6 47% 76.48 0.0
30 14:55 N 24 16.09 Overcast SCT048 BKN055 OVC070 13.6 4 53% 76.48 0.0
30 14:35 N 26 16.09 Overcast SCT050 OVC055 13.2 3.3 51% 76.48 0.0
30 14:15 N 22 16.09 Overcast BKN055 BKN065 OVC085 13.6 2.8 48% 76.48 0.0
30 13:55 N 26 G 33 16.09 Overcast BKN050 BKN065 OVC085 13.8 1.6 44% 76.45 0.0
30 13:35 N 17 G 31 16.09 Overcast SCT055 OVC065 13.5 0.3 41% 76.48 0.0
30 13:15 N 20 G 35 16.09 Mostly Cloudy BKN055 BKN075 13.7 1.2 43% 76.48 0.0
30 12:55 N 26 G 33 16.09 Mostly Cloudy SCT050 BKN065 13.9 1.3 14.2 6 43% 76.48 0.0
30 12:35 N 13 G 31 16.09 Mostly Cloudy SCT048 SCT050 BKN065 13.9 2 45% 76.5 0.0
30 12:15 N 24 G 35 16.09 Partly Cloudy SCT044 13.3 2.2 47% 76.53 0.0
30 11:55 N 19 G 30 16.09 Partly Cloudy SCT042 13 3.7 54% 76.53 0.0
30 11:35 N 22 G 30 16.09 Fair CLR 12.5 4.1 57% 76.56 0.0
30 11:10 N 24 G 33 16.09 Fair CLR 11.9 4.6 61% 76.56 0.0
30 10:55 N 22 G 30 16.09 Fair CLR 11.6 5.8 68% 76.56 0.0
30 10:35 N 28 G 37 16.09 Fair CLR 11.1 5.7 70% 76.56 0.0
30 10:15 N 24 16.09 Partly Cloudy SCT017 10.8 5.9 72% 76.53 0.0
30 09:55 N 22 16.09 Fair CLR 10.5 6.7 78% 76.53 0.0
30 09:35 N 20 16.09 Fair CLR 10.1 6.3 77% 76.53 0.0
30 09:15 N 22 16.09 Fair CLR 9.3 6.1 81% 7 76.53 0.0
30 08:55 N 24 16.09 Fair CLR 9 5.8 81% 6 76.5 0.0
30 08:35 N 22 16.09 Fair CLR 8.3 5.1 80% 5 76.48 0.0
30 08:15 NW 22 16.09 Fair CLR 7.7 4.6 81% 5 76.45 0.0
30 07:55 NW 20 16.09 Fair CLR 7.4 4.3 81% 4 76.43 0.0
30 07:35 NW 20 16.09 Fair CLR 7.2 4.2 81% 4 76.4 0.0
30 07:15 NW 19 16.09 Fair CLR 6.3 3.7 84% 3 76.4 0.0
30 06:55 NW 15 16.09 Fair CLR 5.8 3.5 9.5 5.6 85% 3 76.4 0.0
30 06:35 NW 15 16.09 Fair CLR 5.8 3.5 85% 3 76.4 0.0
30 06:15 NW 15 16.09 Fair CLR 6 3.6 85% 3 76.4 0.0
30 05:55 NW 15 16.09 Fair CLR 6.5 4.3 86% 4 76.38 0.0
30 05:35 NW 17 16.09 Fair CLR 6.6 4.9 89% 4 76.38 0.0
30 05:15 NW 17 16.09 Fair CLR 6.7 5.2 90% 4 76.38 0.0
30 04:55 NW 17 16.09 Fair CLR 6.7 5.5 92% 4 76.38 0.0
30 04:35 NW 15 16.09 Fair CLR 7 5.5 90% 5 76.38 0.0
30 04:15 NW 11 16.09 Fair CLR 6.6 5.3 92% 5 76.38 0.0
30 03:55 W 11 16.09 Fair CLR 6.9 5.5 91% 5 76.35 0.0
30 03:35 W 11 16.09 Fair CLR 6.6 5.2 91% 5 76.33 0.0
30 03:15 W 13 16.09 Fair CLR 7.6 5.8 89% 6 76.35 0.0
30 02:55 W 15 16.09 Partly Cloudy SCT085 8.5 6.5 87% 6 76.35 0.0
30 02:35 SW 13 16.09 Mostly Cloudy BKN085 8.7 7 89% 7 76.35 0.0
30 02:15 SW 15 16.09 Fair CLR 8.8 6.8 87% 7 76.38 0.0
30 01:55 SW 15 16.09 Fair CLR 8.7 6.6 87% 7 76.38 0.0
30 01:35 SW 13 16.09 Partly Cloudy SCT100 8.8 6.6 86% 7 76.4 0.0
30 01:15 W 9 16.09 Mostly Cloudy BKN110 9.4 7 85% 8 76.4 0.0
30 00:55 Calm 16.09 Overcast OVC110 9.2 7.2 16.6 8.5 87% 76.4 0.0
30 00:35 W 6 16.09 Partly Cloudy SCT110 8.6 6.7 88% 76.38 0.0
30 00:15 W 9 16.09 Partly Cloudy SCT100 9.5 7.1 85% 8 76.38 0.0
29 23:55 W 11 16.09 Partly Cloudy SCT110 9.8 7.5 86% 8 76.4 0.0
29 23:35 NW 13 16.09 Mostly Cloudy SCT060 BKN110 10.5 7.5 82% 76.4 0.0
29 23:15 NW 13 16.09 Light Rain BKN060 10.9 7.7 81% 76.43 0.0
29 22:55 NW 20 16.09 Rain BKN060 BKN070 OVC090 11.7 6.8 72% 76.43 0.0
29 22:35 W 11 16.09 Overcast BKN090 OVC110 11.2 6.8 75% 76.4 0.0
29 22:15 SW 7 16.09 Overcast SCT080 BKN090 OVC110 11.5 6.7 73% 76.35 0.0
29 21:55 SW 7 16.09 Overcast SCT080 OVC090 11.4 6.1 70% 76.38 0.0
29 21:35 SW 6 16.09 Mostly Cloudy SCT080 BKN090 11.4 5.8 69% 76.35 0.0
29 21:15 SW 13 16.09 Partly Cloudy SCT080 SCT100 12.6 5.3 61% 76.33 0.0
29 20:55 SW 20 16.09 Mostly Cloudy SCT075 BKN100 13.8 4.8 55% 76.33 0.0
29 20:35 S 9 16.09 Mostly Cloudy SCT075 BKN110 13.6 4.6 55% 76.3 0.0
29 20:15 W 13 16.09 Mostly Cloudy SCT075 BKN100 14.1 5.2 55% 76.3 0.0
Date Time (cdt) Wind (kph) Vis. (km) Weather Sky Cond. Air Dwpt Max. Min. Relative Humidity Wind Chill (°C) Heat Index (°C) altimeter (cm) sea level (mb) 1 hr 3 hr 6 hr
6 hour
Temperature (ºC) Pressure Precipitation (cm)